createdAt,value
2018-01-10T00:00:36.393Z,988.30
2018-01-10T00:01:36.557Z,988.26
2018-01-10T00:02:35.979Z,988.27
2018-01-10T00:03:36.578Z,988.28
2018-01-10T00:04:35.967Z,988.27
2018-01-10T00:05:35.912Z,988.26
2018-01-10T00:06:35.859Z,988.22
2018-01-10T00:07:36.099Z,988.16
2018-01-10T00:08:36.344Z,988.11
2018-01-10T03:48:35.881Z,987.43
2018-01-10T03:49:35.370Z,987.39
2018-01-10T03:50:35.257Z,987.42
2018-01-10T03:51:35.782Z,987.51
2018-01-10T03:52:35.191Z,987.49
2018-01-10T03:53:36.505Z,987.46
2018-01-10T03:54:36.003Z,987.48
2018-01-10T03:55:35.649Z,987.45
2018-01-10T03:56:35.038Z,987.48
2018-01-10T03:57:36.711Z,987.42
2018-01-10T03:58:35.516Z,987.40
2018-01-10T03:59:35.592Z,987.40
2018-01-10T04:00:34.960Z,987.40
2018-01-10T04:01:34.744Z,987.43
2018-01-10T04:02:34.885Z,987.38
2018-01-10T04:03:34.752Z,987.40
2018-01-10T04:04:34.651Z,987.40
2018-01-10T04:05:35.330Z,987.39
2018-01-10T04:06:34.955Z,987.41
2018-01-10T04:07:34.425Z,987.39
2018-01-10T04:08:34.759Z,987.41
2018-01-10T04:30:04.660Z,987.17
2018-01-10T04:31:05.130Z,987.16
2018-01-10T04:32:05.498Z,987.16
2018-01-10T04:33:05.488Z,987.16
2018-01-10T04:34:04.572Z,987.14
2018-01-10T04:35:04.387Z,987.14
2018-01-10T04:36:04.373Z,987.10
2018-01-10T04:37:04.664Z,987.08
2018-01-10T04:38:04.120Z,987.08
2018-01-10T04:39:04.043Z,987.07
2018-01-10T04:53:35.634Z,987.20
2018-01-10T04:54:33.156Z,987.16
2018-01-10T04:59:04.208Z,987.20
2018-01-10T05:00:03.856Z,987.21
2018-01-10T05:01:03.866Z,987.22
2018-01-10T05:02:04.398Z,987.20
2018-01-10T05:03:03.888Z,987.23
2018-01-10T05:04:03.877Z,987.27
2018-01-10T05:05:03.503Z,987.19
2018-01-10T05:06:03.889Z,987.20
2018-01-10T05:07:03.834Z,987.20
2018-01-10T05:08:02.865Z,987.23
2018-01-10T05:09:03.871Z,987.21
2018-01-10T05:10:03.870Z,987.22
2018-01-10T05:11:03.364Z,987.19
2018-01-10T05:12:02.816Z,987.18
2018-01-10T05:13:02.650Z,987.18
2018-01-10T05:14:02.451Z,987.16
2018-01-10T05:15:02.293Z,987.19
2018-01-10T05:16:02.366Z,987.20
2018-01-10T05:17:02.288Z,987.20
2018-01-10T05:18:02.387Z,987.19
2018-01-10T05:19:02.212Z,987.17
2018-01-10T05:20:02.227Z,987.19
2018-01-10T05:21:02.392Z,987.18
2018-01-10T05:22:02.231Z,987.17
2018-01-10T05:23:02.220Z,987.20
2018-01-10T05:24:02.205Z,987.21
2018-01-10T05:25:02.441Z,987.22
2018-01-10T05:26:02.138Z,987.25
2018-01-10T05:27:03.157Z,987.22
2018-01-10T05:28:02.073Z,987.20
2018-01-10T05:29:02.040Z,987.23
2018-01-10T05:30:02.115Z,987.19
2018-01-10T05:31:02.073Z,987.21
2018-01-10T05:32:01.969Z,987.23
2018-01-10T05:33:02.000Z,987.21
2018-01-10T05:34:02.151Z,987.16
2018-01-10T05:35:01.991Z,987.24
2018-01-10T05:36:01.989Z,987.21
2018-01-10T05:37:02.142Z,987.22
2018-01-10T05:38:01.863Z,987.18
2018-01-10T05:39:01.887Z,987.21
2018-01-10T05:40:01.832Z,987.18
2018-01-10T05:41:01.921Z,987.17
2018-01-10T05:42:01.730Z,987.18
2018-01-10T05:43:01.767Z,987.16
2018-01-10T05:44:01.671Z,987.17
2018-01-10T05:45:01.648Z,987.18
2018-01-10T05:46:01.950Z,987.19
2018-01-10T05:47:01.644Z,987.16
2018-01-10T05:48:04.257Z,987.14
2018-01-10T05:49:01.596Z,987.16
2018-01-10T05:50:01.574Z,987.14
2018-01-10T05:51:01.594Z,987.15
2018-01-10T05:52:01.764Z,987.15
2018-01-10T05:53:01.559Z,987.15
2018-01-10T05:54:01.373Z,987.15
2018-01-10T05:55:01.576Z,987.16
2018-01-10T05:56:01.594Z,987.15
2018-01-10T05:57:01.474Z,987.18
2018-01-10T05:58:01.370Z,987.15
2018-01-10T05:59:01.277Z,987.12
2018-01-10T06:00:01.329Z,987.20
2018-01-10T06:01:01.285Z,987.13
2018-01-10T06:02:01.352Z,987.13
2018-01-10T06:03:01.222Z,987.12
2018-01-10T06:04:01.208Z,987.15
2018-01-10T06:05:01.393Z,987.14
2018-01-10T06:06:01.195Z,987.16
2018-01-10T06:07:01.434Z,987.14
2018-01-10T06:08:01.084Z,987.18
2018-01-10T06:09:01.277Z,987.18
2018-01-10T06:10:01.264Z,987.19
2018-01-10T06:11:01.073Z,987.19
2018-01-10T06:12:00.950Z,987.20
2018-01-10T06:13:01.210Z,987.19
2018-01-10T06:14:00.911Z,987.18
2018-01-10T06:15:00.894Z,987.18
2018-01-10T06:16:00.836Z,987.15
2018-01-10T06:17:00.859Z,987.19
2018-01-10T06:18:00.803Z,987.15
2018-01-10T06:19:00.838Z,987.14
2018-01-10T06:20:00.891Z,987.14
2018-01-10T06:24:02.237Z,987.16
2018-01-10T06:25:01.842Z,987.16
2018-01-10T06:26:01.929Z,987.20
2018-01-10T06:27:02.224Z,987.17
2018-01-10T07:00:04.961Z,987.35
2018-01-10T07:01:05.860Z,987.29
2018-01-10T07:02:04.801Z,987.34
2018-01-10T07:03:04.919Z,987.32
2018-01-10T07:04:04.238Z,987.34
2018-01-10T07:05:05.231Z,987.36
2018-01-10T07:06:04.162Z,987.34
2018-01-10T07:07:04.895Z,987.36
2018-01-10T07:08:04.966Z,987.39
2018-01-10T07:09:04.616Z,987.36
2018-01-10T07:10:04.600Z,987.40
2018-01-10T07:11:05.431Z,987.42
2018-01-10T07:12:04.565Z,987.41
2018-01-10T07:13:04.945Z,987.39
2018-01-10T07:14:04.506Z,987.43
2018-01-10T07:15:03.813Z,987.37
2018-01-10T07:16:03.541Z,987.38
2018-01-10T07:17:03.544Z,987.39
2018-01-10T07:18:03.452Z,987.37
2018-01-10T07:19:03.498Z,987.43
2018-01-10T07:20:03.459Z,987.39
2018-01-10T07:21:03.378Z,987.40
2018-01-10T07:22:03.390Z,987.41
2018-01-10T07:23:03.377Z,987.37
2018-01-10T07:24:03.319Z,987.42
2018-01-10T07:25:03.371Z,987.37
2018-01-10T07:26:03.404Z,987.44
2018-01-10T07:27:03.261Z,987.44
2018-01-10T07:28:03.202Z,987.45
2018-01-10T07:29:03.205Z,987.44
2018-01-10T07:30:03.180Z,987.45
2018-01-10T07:31:03.182Z,987.44
2018-01-10T07:32:03.131Z,987.48
2018-01-10T07:33:03.093Z,987.45
2018-01-10T07:34:03.164Z,987.42
2018-01-10T07:35:03.076Z,987.42
2018-01-10T07:36:03.061Z,987.39
2018-01-10T07:37:03.002Z,987.42
2018-01-10T07:38:02.974Z,987.43
2018-01-10T07:39:02.996Z,987.41
2018-01-10T07:40:02.940Z,987.44
2018-01-10T07:41:02.908Z,987.44
2018-01-10T07:42:02.864Z,987.44
2018-01-10T07:43:02.908Z,987.46
2018-01-10T07:44:02.820Z,987.51
2018-01-10T07:45:02.863Z,987.48
2018-01-10T07:46:02.773Z,987.48
2018-01-10T07:47:02.750Z,987.49
2018-01-10T07:48:02.742Z,987.51
2018-01-10T07:49:02.735Z,987.47
2018-01-10T07:50:02.694Z,987.45
2018-01-10T07:51:02.638Z,987.46
2018-01-10T07:52:02.635Z,987.44
2018-01-10T07:53:02.595Z,987.50
2018-01-10T07:54:02.580Z,987.46
2018-01-10T07:55:02.601Z,987.45
2018-01-10T07:56:02.595Z,987.45
2018-01-10T07:57:02.634Z,987.46
2018-01-10T07:58:02.578Z,987.45
2018-01-10T07:59:02.492Z,987.46
2018-01-10T08:00:02.464Z,987.48
2018-01-10T08:01:02.429Z,987.44
2018-01-10T08:02:02.415Z,987.48
2018-01-10T08:03:03.093Z,987.47
2018-01-10T08:04:02.376Z,987.40
2018-01-10T08:05:02.343Z,987.47
2018-01-10T08:06:02.322Z,987.42
2018-01-10T08:07:02.310Z,987.45
2018-01-10T08:08:02.246Z,987.45
2018-01-10T08:09:02.247Z,987.48
2018-01-10T08:10:02.195Z,987.47
2018-01-10T08:11:02.244Z,987.46
2018-01-10T08:12:02.156Z,987.47
2018-01-10T08:13:02.157Z,987.45
2018-01-10T08:14:02.099Z,987.44
2018-01-10T08:15:02.153Z,987.43
2018-01-10T08:16:02.111Z,987.46
2018-01-10T08:17:02.097Z,987.47
2018-01-10T08:18:02.176Z,987.52
2018-01-10T08:19:02.027Z,987.45
2018-01-10T08:20:01.999Z,987.47
2018-01-10T08:21:01.993Z,987.47
2018-01-10T08:22:01.936Z,987.46
2018-01-10T08:23:01.926Z,987.50
2018-01-10T08:24:01.978Z,987.48
2018-01-10T08:25:01.841Z,987.55
2018-01-10T08:26:01.828Z,987.53
2018-01-10T08:27:01.936Z,987.51
2018-01-10T08:28:01.774Z,987.52
2018-01-10T08:29:01.742Z,987.49
2018-01-10T08:30:01.773Z,987.48
2018-01-10T08:31:01.702Z,987.51
2018-01-10T08:32:01.749Z,987.52
2018-01-10T08:33:01.667Z,987.48
2018-01-10T08:34:01.691Z,987.53
2018-01-10T08:35:01.660Z,987.53
2018-01-10T08:36:01.590Z,987.53
2018-01-10T08:37:01.580Z,987.54
2018-01-10T08:38:01.542Z,987.47
2018-01-10T08:39:01.523Z,987.49
2018-01-10T08:40:01.627Z,987.53
2018-01-10T08:41:01.511Z,987.50
2018-01-10T08:42:01.439Z,987.53
2018-01-10T08:43:01.446Z,987.48
2018-01-10T08:44:01.417Z,987.49
2018-01-10T08:45:01.427Z,987.57
2018-01-10T08:46:01.368Z,987.54
2018-01-10T08:47:01.342Z,987.56
2018-01-10T08:48:01.328Z,987.55
2018-01-10T08:49:01.299Z,987.54
2018-01-10T08:50:01.281Z,987.57
2018-01-10T08:51:02.111Z,987.55
2018-01-10T08:52:01.217Z,987.59
2018-01-10T08:53:01.235Z,987.56
2018-01-10T08:54:01.686Z,987.59
2018-01-10T08:55:01.615Z,987.58
2018-01-10T11:01:05.185Z,986.81
2018-01-10T11:02:05.737Z,986.81
2018-01-10T11:03:05.865Z,986.86
2018-01-10T11:04:05.063Z,986.83
2018-01-10T11:05:05.712Z,986.82
2018-01-10T11:06:04.753Z,986.83
2018-01-10T11:07:04.761Z,986.83
2018-01-10T11:08:04.700Z,986.83
2018-01-10T11:09:04.709Z,986.81
2018-01-10T11:10:04.648Z,986.81
2018-01-10T11:11:05.497Z,986.79
2018-01-10T11:12:04.657Z,986.82
2018-01-10T11:13:04.625Z,986.77
2018-01-10T11:14:04.519Z,986.76
2018-01-10T11:15:04.604Z,986.77
2018-01-10T11:16:04.531Z,986.73
2018-01-10T11:17:04.460Z,986.72
2018-01-10T11:18:04.467Z,986.71
2018-01-10T11:19:04.422Z,986.72
2018-01-10T11:20:04.462Z,986.71
2018-01-10T11:21:04.394Z,986.71
2018-01-10T11:22:04.395Z,986.67
2018-01-10T11:23:04.408Z,986.69
2018-01-10T11:24:04.340Z,986.61
2018-01-10T11:25:04.347Z,986.58
2018-01-10T11:26:04.318Z,986.57
2018-01-10T11:27:08.708Z,986.55
2018-01-10T11:28:04.330Z,986.53
2018-01-10T11:29:04.259Z,986.57
2018-01-10T11:30:04.323Z,986.59
2018-01-10T11:31:04.246Z,986.58
2018-01-10T11:32:04.238Z,986.63
2018-01-10T11:33:04.198Z,986.60
2018-01-10T11:34:04.159Z,986.60
2018-01-10T11:35:04.133Z,986.59
2018-01-10T11:36:04.128Z,986.59
2018-01-10T11:37:04.180Z,986.58
2018-01-10T11:38:04.049Z,986.57
2018-01-10T11:39:04.215Z,986.53
2018-01-10T11:40:04.099Z,986.52
2018-01-10T11:41:04.193Z,986.53
2018-01-10T11:42:04.025Z,986.53
2018-01-10T11:43:04.342Z,986.53
2018-01-10T11:44:04.041Z,986.62
2018-01-10T11:45:03.982Z,986.62
2018-01-10T11:46:04.005Z,986.55
2018-01-10T11:47:03.899Z,986.50
2018-01-10T11:48:03.994Z,986.40
2018-01-10T11:49:03.949Z,986.39
2018-01-10T11:50:03.948Z,986.35
2018-01-10T11:51:03.974Z,986.38
2018-01-10T11:52:03.856Z,986.42
2018-01-10T11:53:03.927Z,986.38
2018-01-10T12:31:45.225Z,986.40
2018-01-10T12:32:38.848Z,986.27
2018-01-10T12:33:37.859Z,986.26
2018-01-10T12:34:38.903Z,986.32
2018-01-10T12:35:37.902Z,986.40
2018-01-10T12:36:38.435Z,986.40
2018-01-10T12:37:39.356Z,986.38
2018-01-10T12:38:39.415Z,986.42
2018-01-10T12:39:37.836Z,986.45
2018-01-10T12:40:38.868Z,986.52
2018-01-10T12:41:38.855Z,986.46
2018-01-10T12:42:37.801Z,986.38
2018-01-10T12:43:37.822Z,986.30
2018-01-10T12:44:37.418Z,986.30
2018-01-10T12:45:37.324Z,986.36
2018-01-10T12:46:37.296Z,986.42
2018-01-10T12:47:37.363Z,986.36
2018-01-10T12:48:37.269Z,986.36
2018-01-10T12:49:37.332Z,986.31
2018-01-10T12:50:37.208Z,986.29
2018-01-10T12:51:37.294Z,986.29
2018-01-10T12:52:37.186Z,986.29
2018-01-10T12:53:37.664Z,986.24
2018-01-10T12:54:37.248Z,986.20
2018-01-10T12:55:37.969Z,986.17
2018-01-10T12:56:37.365Z,986.11
2018-01-10T12:57:37.192Z,986.11
2018-01-10T12:58:37.157Z,986.14
2018-01-10T12:59:37.433Z,986.12
2018-01-10T16:20:28.058Z,986.57
2018-01-10T16:21:28.013Z,986.54
2018-01-10T16:22:29.287Z,986.58
2018-01-10T16:23:28.028Z,986.59
2018-01-10T16:24:27.967Z,986.56
2018-01-10T16:25:27.898Z,986.56
2018-01-10T16:26:27.805Z,986.55
2018-01-10T16:27:27.677Z,986.55
2018-01-10T16:28:27.693Z,986.57
2018-01-10T16:29:27.634Z,986.60
2018-01-10T16:30:27.623Z,986.58
2018-01-10T16:32:47.990Z,986.58
2018-01-10T16:33:47.837Z,986.56
2018-01-10T16:35:41.343Z,986.63
2018-01-10T16:36:41.451Z,986.66
2018-01-10T16:37:41.435Z,986.66
2018-01-10T16:38:41.210Z,986.69
2018-01-10T16:39:41.127Z,986.65
2018-01-10T16:40:41.072Z,986.65
2018-01-10T16:41:41.062Z,986.65
2018-01-10T16:42:41.000Z,986.67
2018-01-10T16:43:40.961Z,986.68
2018-01-10T16:44:41.013Z,986.67
2018-01-10T16:45:40.946Z,986.63
2018-01-10T16:46:40.950Z,986.65
2018-01-10T16:47:40.895Z,986.64
2018-01-10T16:48:40.874Z,986.68
2018-01-10T16:49:40.866Z,986.62
2018-01-10T16:50:40.856Z,986.63
2018-01-10T16:51:40.828Z,986.69
2018-01-10T16:52:40.781Z,986.63
2018-01-10T16:53:40.751Z,986.65
2018-01-10T16:54:40.821Z,986.66
2018-01-10T16:55:40.744Z,986.63
2018-01-10T16:56:40.669Z,986.66
2018-01-10T16:57:40.653Z,986.62
2018-01-10T16:58:40.620Z,986.63
2018-01-10T16:59:40.604Z,986.65
2018-01-10T17:00:40.584Z,986.61
2018-01-10T17:01:40.645Z,986.65
2018-01-10T17:02:40.608Z,986.72
2018-01-10T17:03:40.845Z,986.68
2018-01-10T17:04:40.728Z,986.64
2018-01-10T17:05:41.109Z,986.67
2018-01-10T17:06:41.020Z,986.68
2018-01-10T17:07:42.666Z,986.67
2018-01-10T17:08:40.561Z,986.70
2018-01-10T17:09:40.395Z,986.73
2018-01-10T17:10:40.359Z,986.73
2018-01-10T17:11:40.368Z,986.76
2018-01-10T17:12:40.414Z,986.76
2018-01-10T17:13:40.338Z,986.82
2018-01-10T17:14:40.385Z,986.82
2018-01-10T17:15:40.242Z,986.84
2018-01-10T17:16:40.249Z,986.82
2018-01-10T17:17:40.245Z,986.82
2018-01-10T17:18:40.170Z,986.83
2018-01-10T17:19:40.166Z,986.80
2018-01-10T17:20:40.158Z,986.80
2018-01-10T17:21:40.106Z,986.82
2018-01-10T17:22:40.089Z,986.82
2018-01-10T17:23:40.078Z,986.83
2018-01-10T17:24:40.033Z,986.83
2018-01-10T17:25:40.046Z,986.85
2018-01-10T17:26:40.018Z,986.86
2018-01-10T17:27:39.960Z,986.85
2018-01-10T17:28:39.929Z,986.82
2018-01-10T17:29:39.943Z,986.89
2018-01-10T17:30:39.915Z,986.87
2018-01-10T17:31:39.880Z,986.87
2018-01-10T17:32:39.897Z,986.90
2018-01-10T17:33:39.823Z,986.89
2018-01-10T17:34:39.829Z,986.90
2018-01-10T17:35:39.799Z,986.88
2018-01-10T17:36:39.831Z,986.84
2018-01-10T17:37:39.775Z,986.83
2018-01-10T17:38:39.720Z,986.88
2018-01-10T17:39:39.751Z,986.84
2018-01-10T17:40:39.662Z,986.82
2018-01-10T17:41:39.687Z,986.84
2018-01-10T17:42:39.611Z,986.87
2018-01-10T17:43:39.705Z,986.85
2018-01-10T17:44:39.645Z,986.87
2018-01-10T17:45:39.580Z,986.86
2018-01-10T17:46:39.581Z,986.88
2018-01-10T17:47:40.243Z,986.86
2018-01-10T17:48:39.505Z,986.89
2018-01-10T17:49:39.484Z,986.89
2018-01-10T17:50:39.608Z,986.88
2018-01-10T17:51:39.593Z,986.92
2018-01-10T17:52:39.663Z,986.91
2018-01-10T17:53:39.388Z,986.94
2018-01-10T17:54:39.369Z,986.90
2018-01-10T17:55:39.382Z,986.94
2018-01-10T17:56:39.304Z,986.94
2018-01-10T17:57:39.432Z,986.95
2018-01-10T17:58:39.381Z,986.97
2018-01-10T17:59:39.252Z,986.98
2018-01-10T18:00:39.304Z,986.96
2018-01-10T18:01:39.177Z,987.02
2018-01-10T18:02:39.164Z,987.01
2018-01-10T18:03:39.146Z,987.01
2018-01-10T18:04:39.156Z,987.01
2018-01-10T18:05:39.138Z,987.01
2018-01-10T18:06:39.320Z,987.04
2018-01-10T18:07:39.731Z,987.04
2018-01-10T18:08:39.073Z,987.03
2018-01-10T18:09:39.025Z,987.06
2018-01-10T18:10:39.145Z,987.05
2018-01-10T18:11:38.978Z,987.07
2018-01-10T18:12:39.780Z,987.09
2018-01-10T18:13:38.911Z,987.11
2018-01-10T18:14:38.966Z,987.11
2018-01-10T18:15:38.927Z,987.12
2018-01-10T18:16:38.871Z,987.10
2018-01-10T18:17:38.879Z,987.08
2018-01-10T18:18:38.823Z,987.08
2018-01-10T18:19:38.798Z,987.10
2018-01-10T18:20:40.105Z,987.09
2018-01-10T18:21:38.921Z,987.13
2018-01-10T18:22:38.964Z,987.09
2018-01-10T18:23:40.265Z,987.12
2018-01-10T18:24:38.868Z,987.17
2018-01-10T18:25:38.660Z,987.16
2018-01-10T18:26:38.684Z,987.16
2018-01-10T18:27:38.702Z,987.15
2018-01-10T18:28:38.873Z,987.17
2018-01-10T18:29:38.583Z,987.17
2018-01-10T18:30:38.632Z,987.17
2018-01-10T18:31:38.557Z,987.18
2018-01-10T18:32:38.529Z,987.18
2018-01-10T18:33:38.511Z,987.16
2018-01-10T18:34:38.442Z,987.17
2018-01-10T18:35:38.425Z,987.15
2018-01-10T18:36:38.456Z,987.15
2018-01-10T18:37:38.358Z,987.15
2018-01-10T18:38:38.324Z,987.19
2018-01-10T18:39:38.312Z,987.18
2018-01-10T18:40:38.268Z,987.19
2018-01-10T18:41:38.274Z,987.24
2018-01-10T18:42:38.278Z,987.27
2018-01-10T18:43:38.216Z,987.27
2018-01-10T18:44:38.180Z,987.26
2018-01-10T18:45:38.169Z,987.26
2018-01-10T18:46:39.202Z,987.27
2018-01-10T18:47:38.145Z,987.25
2018-01-10T18:48:38.104Z,987.25
2018-01-10T18:49:38.338Z,987.23
2018-01-10T18:50:38.069Z,987.24
2018-01-10T18:51:38.040Z,987.19
2018-01-10T18:52:38.036Z,987.17
2018-01-10T18:53:38.198Z,987.20
2018-01-10T18:54:37.974Z,987.21
2018-01-10T18:55:37.951Z,987.21
2018-01-10T18:56:37.905Z,987.21
2018-01-10T18:57:37.879Z,987.17
2018-01-10T18:58:37.878Z,987.15
2018-01-10T18:59:37.863Z,987.13
2018-01-10T19:00:37.827Z,987.17
2018-01-10T19:01:37.796Z,987.13
2018-01-10T19:02:37.782Z,987.15
2018-01-10T19:03:37.751Z,987.17
2018-01-10T19:04:37.716Z,987.19
2018-01-10T19:05:37.699Z,987.13
2018-01-10T19:06:37.685Z,987.16
2018-01-10T19:07:37.675Z,987.16
2018-01-10T19:08:37.657Z,987.16
2018-01-10T19:09:37.604Z,987.17
2018-01-10T19:10:37.584Z,987.18
2018-01-10T19:11:37.568Z,987.11
2018-01-10T19:12:37.560Z,987.13
2018-01-10T19:13:37.587Z,987.11
2018-01-10T19:14:37.488Z,987.13
2018-01-10T19:15:37.615Z,987.10
2018-01-10T19:16:37.476Z,987.13
2018-01-10T19:17:37.427Z,987.11
2018-01-10T19:18:37.418Z,987.11
2018-01-10T19:19:37.462Z,987.12
2018-01-10T19:20:37.343Z,987.13
2018-01-10T19:21:37.338Z,987.09
2018-01-10T19:22:37.364Z,987.10
2018-01-10T19:23:37.302Z,987.07
2018-01-10T19:24:37.259Z,987.09
2018-01-10T19:25:37.254Z,987.09
2018-01-10T19:26:37.239Z,987.06
2018-01-10T19:27:37.189Z,987.09
2018-01-10T19:28:37.243Z,987.13
2018-01-10T19:29:37.168Z,987.10
2018-01-10T19:30:37.144Z,987.10
2018-01-10T19:31:37.206Z,987.10
2018-01-10T19:32:37.195Z,987.12
2018-01-10T19:33:37.189Z,987.14
2018-01-10T19:34:37.117Z,987.10
2018-01-10T19:35:37.024Z,987.12
2018-01-10T19:36:37.013Z,987.14
2018-01-10T19:37:36.992Z,987.10
2018-01-10T19:38:36.968Z,987.11
2018-01-10T19:39:36.978Z,987.18
2018-01-10T19:40:36.930Z,987.17
2018-01-10T19:41:36.867Z,987.15
2018-01-10T19:42:36.860Z,987.18
2018-01-10T19:43:36.864Z,987.18
2018-01-10T19:44:36.869Z,987.17
2018-01-10T19:45:36.783Z,987.18
2018-01-10T19:46:36.796Z,987.21
2018-01-10T19:47:36.783Z,987.21
2018-01-10T19:48:36.754Z,987.25
2018-01-10T19:49:36.696Z,987.26
2018-01-10T19:50:36.673Z,987.29
2018-01-10T19:51:36.643Z,987.29
2018-01-10T19:52:36.612Z,987.31
2018-01-10T19:53:36.616Z,987.30
2018-01-10T19:54:36.592Z,987.31
2018-01-10T19:55:36.607Z,987.29
2018-01-10T19:56:36.544Z,987.32
2018-01-10T19:57:36.516Z,987.33
2018-01-10T19:58:36.537Z,987.34
2018-01-10T19:59:36.467Z,987.28
2018-01-10T20:00:36.500Z,987.26
2018-01-10T20:01:36.487Z,987.28
2018-01-10T20:02:36.420Z,987.31
2018-01-10T20:03:36.392Z,987.29
2018-01-10T20:04:36.397Z,987.30
2018-01-10T20:05:36.416Z,987.27
2018-01-10T20:06:36.291Z,987.25
2018-01-10T20:07:36.330Z,987.24
2018-01-10T20:08:36.349Z,987.25
2018-01-10T20:09:36.295Z,987.26
2018-01-10T20:10:36.232Z,987.26
2018-01-10T20:11:36.215Z,987.25
2018-01-10T20:12:36.160Z,987.25
2018-01-10T20:13:36.137Z,987.26
2018-01-10T20:14:36.139Z,987.26
2018-01-10T20:15:36.144Z,987.27
2018-01-10T20:16:36.111Z,987.30
2018-01-10T20:17:36.093Z,987.26
2018-01-10T20:18:36.083Z,987.26
2018-01-10T20:19:36.076Z,987.26
2018-01-10T20:20:35.975Z,987.27
2018-01-10T20:21:35.945Z,987.26
2018-01-10T20:22:35.953Z,987.21
2018-01-10T20:23:35.933Z,987.23
2018-01-10T20:24:35.918Z,987.23
2018-01-10T20:25:35.918Z,987.23
2018-01-10T20:26:35.830Z,987.23
2018-01-10T20:27:35.837Z,987.25
2018-01-10T20:28:35.866Z,987.24
2018-01-10T20:29:35.782Z,987.29
2018-01-10T20:30:35.748Z,987.33
2018-01-10T20:31:35.747Z,987.33
2018-01-10T20:32:35.714Z,987.34
2018-01-10T20:33:35.706Z,987.36
2018-01-10T20:34:35.766Z,987.34
2018-01-10T20:35:35.615Z,987.34
2018-01-10T20:36:35.652Z,987.35
2018-01-10T20:37:35.572Z,987.35
2018-01-10T20:38:35.571Z,987.35
2018-01-10T20:39:35.539Z,987.38
2018-01-10T20:40:35.538Z,987.39
2018-01-10T20:41:35.512Z,987.34
2018-01-10T20:42:35.466Z,987.40
2018-01-10T20:43:35.432Z,987.41
2018-01-10T20:44:35.442Z,987.44
2018-01-10T20:45:35.465Z,987.41
2018-01-10T20:46:35.395Z,987.45
2018-01-10T20:47:35.353Z,987.47
2018-01-10T20:48:35.380Z,987.46
2018-01-10T20:49:35.305Z,987.47
2018-01-10T20:50:35.365Z,987.43
2018-01-10T20:51:35.274Z,987.44
2018-01-10T20:52:35.248Z,987.48
2018-01-10T20:53:35.252Z,987.46
2018-01-10T20:54:35.223Z,987.48
2018-01-10T20:55:35.216Z,987.43
2018-01-10T20:56:35.160Z,987.48
2018-01-10T20:57:35.156Z,987.52
2018-01-10T20:58:35.120Z,987.49
2018-01-10T20:59:35.092Z,987.55
2018-01-10T21:00:35.060Z,987.53
2018-01-10T21:01:35.037Z,987.50
2018-01-10T21:02:35.010Z,987.49
2018-01-10T21:03:34.979Z,987.52
2018-01-10T21:04:34.950Z,987.52
2018-01-10T21:05:34.989Z,987.50
2018-01-10T21:06:34.968Z,987.54
2018-01-10T21:07:34.910Z,987.54
2018-01-10T21:08:34.868Z,987.57
2018-01-10T21:09:34.869Z,987.57
2018-01-10T21:10:34.817Z,987.57
2018-01-10T21:11:34.805Z,987.56
2018-01-10T21:12:34.808Z,987.60
2018-01-10T21:13:34.808Z,987.60
2018-01-10T21:14:34.798Z,987.56
2018-01-10T21:15:34.736Z,987.62
2018-01-10T21:16:34.716Z,987.57
2018-01-10T21:17:34.720Z,987.60
2018-01-10T21:18:34.669Z,987.59
2018-01-10T21:19:34.787Z,987.62
2018-01-10T21:20:34.638Z,987.60
2018-01-10T21:21:34.597Z,987.60
2018-01-10T21:22:34.592Z,987.62
2018-01-10T21:23:34.530Z,987.61
2018-01-10T21:24:34.563Z,987.62
2018-01-10T21:25:34.495Z,987.61
2018-01-10T21:26:34.492Z,987.60
2018-01-10T21:27:34.432Z,987.58
2018-01-10T21:28:34.403Z,987.59
2018-01-10T21:29:34.416Z,987.62
2018-01-10T21:30:34.356Z,987.60
2018-01-10T21:31:34.388Z,987.61
2018-01-10T21:32:34.330Z,987.61
2018-01-10T21:33:34.480Z,987.59
2018-01-10T21:34:34.466Z,987.58
2018-01-10T21:35:34.356Z,987.60
2018-01-10T21:36:34.486Z,987.58
2018-01-10T21:37:34.200Z,987.58
2018-01-10T21:38:34.231Z,987.58
2018-01-10T21:39:34.835Z,987.57
2018-01-10T21:40:34.130Z,987.61
2018-01-10T21:41:34.121Z,987.67
2018-01-10T21:45:01.977Z,987.64
2018-01-10T21:46:04.166Z,987.66
2018-01-10T21:46:58.095Z,987.64
2018-01-10T21:47:58.076Z,987.68
2018-01-10T21:48:57.550Z,987.66
2018-01-10T21:49:57.913Z,987.68
2018-01-10T21:50:58.268Z,987.65
2018-01-10T21:51:57.137Z,987.59
2018-01-10T21:52:59.267Z,987.63
2018-01-10T21:53:59.043Z,987.67
2018-01-10T21:54:57.934Z,987.65
2018-01-10T21:55:56.681Z,987.61
2018-01-10T21:56:56.566Z,987.65
2018-01-10T21:57:56.521Z,987.68
2018-01-10T21:58:56.486Z,987.69
2018-01-10T21:59:56.534Z,987.64
2018-01-10T22:00:56.640Z,987.67
2018-01-10T22:01:56.531Z,987.68
2018-01-10T22:02:56.671Z,987.69
2018-01-10T22:03:56.518Z,987.68
2018-01-10T22:04:56.409Z,987.67
2018-01-10T22:05:56.425Z,987.67
2018-01-10T22:06:56.394Z,987.68
2018-01-10T22:07:56.282Z,987.68
2018-01-10T22:08:56.319Z,987.71
2018-01-10T22:09:56.328Z,987.73
2018-01-10T22:10:56.304Z,987.71
2018-01-10T22:11:56.443Z,987.66
2018-01-10T22:12:56.517Z,987.64
2018-01-10T22:13:56.274Z,987.67
2018-01-10T22:14:56.233Z,987.66
2018-01-10T22:17:18.378Z,987.62
2018-01-10T22:18:18.081Z,987.61
2018-01-10T22:20:11.381Z,987.63
2018-01-10T22:21:10.928Z,987.66
2018-01-10T22:22:10.749Z,987.65
2018-01-10T22:23:10.927Z,987.65
2018-01-10T22:24:10.735Z,987.67
2018-01-10T22:25:10.571Z,987.64
2018-01-10T22:26:10.590Z,987.67
2018-01-10T22:27:10.564Z,987.67
2018-01-10T22:28:10.486Z,987.65
2018-01-10T22:29:10.484Z,987.70
2018-01-10T22:30:10.486Z,987.68
2018-01-10T22:31:10.419Z,987.67
2018-01-10T22:32:10.407Z,987.69
2018-01-10T22:33:10.362Z,987.68
2018-01-10T22:34:10.437Z,987.62
2018-01-10T22:35:10.439Z,987.64
2018-01-10T22:36:10.378Z,987.64
2018-01-10T22:37:10.320Z,987.65
2018-01-10T22:38:10.302Z,987.65
2018-01-10T22:39:10.302Z,987.65
2018-01-10T22:40:10.244Z,987.66
2018-01-10T22:41:10.312Z,987.65
2018-01-10T22:42:10.508Z,987.67
2018-01-10T22:43:10.175Z,987.64
2018-01-10T22:44:10.216Z,987.68
2018-01-10T22:45:10.126Z,987.66
2018-01-10T22:46:10.175Z,987.63
2018-01-10T22:47:10.120Z,987.62
2018-01-10T22:48:10.051Z,987.61
2018-01-10T22:49:10.032Z,987.64
2018-01-10T22:50:09.993Z,987.67
2018-01-10T22:51:10.064Z,987.70
2018-01-10T22:52:10.069Z,987.73
2018-01-10T22:53:12.885Z,987.70
2018-01-10T22:59:48.650Z,987.73
2018-01-10T23:00:44.057Z,987.70
2018-01-10T23:01:40.670Z,987.67
2018-01-10T23:02:41.185Z,987.69
2018-01-10T23:03:40.793Z,987.69
2018-01-10T23:04:40.617Z,987.64
2018-01-10T23:05:40.970Z,987.66
2018-01-10T23:06:41.820Z,987.65
2018-01-10T23:07:40.525Z,987.67
2018-01-10T23:08:40.251Z,987.64
2018-01-10T23:09:41.759Z,987.62
2018-01-10T23:10:40.180Z,987.62
2018-01-10T23:11:40.165Z,987.63
2018-01-10T23:12:40.128Z,987.60
2018-01-10T23:13:40.152Z,987.58
2018-01-10T23:14:40.152Z,987.61
2018-01-10T23:15:40.029Z,987.61
2018-01-10T23:16:40.078Z,987.61
2018-01-10T23:17:40.076Z,987.57
2018-01-10T23:18:40.202Z,987.63
2018-01-10T23:19:39.993Z,987.57
2018-01-10T23:20:40.805Z,987.61
2018-01-10T23:21:40.009Z,987.62
2018-01-10T23:22:39.976Z,987.59
2018-01-10T23:23:39.938Z,987.59
2018-01-10T23:24:39.958Z,987.61
2018-01-10T23:25:39.898Z,987.61
2018-01-10T23:26:39.997Z,987.59
2018-01-10T23:27:39.883Z,987.59
2018-01-10T23:28:39.878Z,987.60
2018-01-10T23:29:39.750Z,987.60
2018-01-10T23:30:39.777Z,987.60
2018-01-10T23:31:39.760Z,987.61
2018-01-10T23:32:39.788Z,987.60
2018-01-10T23:33:39.715Z,987.62
2018-01-10T23:34:39.735Z,987.59